sensor_id;sensor_type;location;lat;lon;timestamp;temperature;humidity
21207;DHT22;10761;48.532;8.026;2024-03-02T00:00:13;5.10;1.00
21207;DHT22;10761;48.532;8.026;2024-03-02T00:02:42;5.10;4.40
21207;DHT22;10761;48.532;8.026;2024-03-02T00:05:11;5.00;1.00
21207;DHT22;10761;48.532;8.026;2024-03-02T00:07:37;5.00;99.90
21207;DHT22;10761;48.532;8.026;2024-03-02T00:10:08;4.90;1.00
21207;DHT22;10761;48.532;8.026;2024-03-02T00:12:38;4.80;1.00
21207;DHT22;10761;48.532;8.026;2024-03-02T00:17:55;4.60;1.00
21207;DHT22;10761;48.532;8.026;2024-03-02T00:20:24;4.50;1.00
21207;DHT22;10761;48.532;8.026;2024-03-02T00:23:01;4.50;1.00
21207;DHT22;10761;48.532;8.026;2024-03-02T00:25:43;4.60;1.00
21207;DHT22;10761;48.532;8.026;2024-03-02T00:28:20;4.50;1.00
21207;DHT22;10761;48.532;8.026;2024-03-02T00:33:15;4.20;1.00
21207;DHT22;10761;48.532;8.026;2024-03-02T00:35:44;4.20;1.00
21207;DHT22;10761;48.532;8.026;2024-03-02T00:38:10;4.20;1.00
21207;DHT22;10761;48.532;8.026;2024-03-02T00:40:36;4.10;1.00
21207;DHT22;10761;48.532;8.026;2024-03-02T00:43:02;4.00;1.00
21207;DHT22;10761;48.532;8.026;2024-03-02T00:45:29;4.00;1.00
21207;DHT22;10761;48.532;8.026;2024-03-02T00:47:55;4.10;1.00
21207;DHT22;10761;48.532;8.026;2024-03-02T00:50:21;4.20;1.00
21207;DHT22;10761;48.532;8.026;2024-03-02T00:52:46;4.20;1.00
21207;DHT22;10761;48.532;8.026;2024-03-02T00:55:14;4.20;1.00
21207;DHT22;10761;48.532;8.026;2024-03-02T00:57:39;4.00;1.00
21207;DHT22;10761;48.532;8.026;2024-03-02T01:00:06;4.00;1.00
21207;DHT22;10761;48.532;8.026;2024-03-02T01:02:35;4.00;1.00
21207;DHT22;10761;48.532;8.026;2024-03-02T01:05:01;4.00;1.00
21207;DHT22;10761;48.532;8.026;2024-03-02T01:07:26;3.90;1.00
21207;DHT22;10761;48.532;8.026;2024-03-02T01:09:52;3.90;1.00
21207;DHT22;10761;48.532;8.026;2024-03-02T01:12:18;3.80;1.00
21207;DHT22;10761;48.532;8.026;2024-03-02T01:14:43;3.80;1.00
21207;DHT22;10761;48.532;8.026;2024-03-02T01:17:09;3.80;1.00
21207;DHT22;10761;48.532;8.026;2024-03-02T01:19:35;3.80;1.00
21207;DHT22;10761;48.532;8.026;2024-03-02T01:22:00;4.00;1.00
21207;DHT22;10761;48.532;8.026;2024-03-02T01:24:26;4.00;1.00
21207;DHT22;10761;48.532;8.026;2024-03-02T01:26:51;4.00;1.00
21207;DHT22;10761;48.532;8.026;2024-03-02T01:29:17;4.00;1.00
21207;DHT22;10761;48.532;8.026;2024-03-02T01:31:43;3.90;1.00
21207;DHT22;10761;48.532;8.026;2024-03-02T01:34:09;3.80;1.00
21207;DHT22;10761;48.532;8.026;2024-03-02T01:36:34;3.70;1.00
21207;DHT22;10761;48.532;8.026;2024-03-02T01:39:00;3.70;1.00
21207;DHT22;10761;48.532;8.026;2024-03-02T01:41:26;3.70;1.00
21207;DHT22;10761;48.532;8.026;2024-03-02T01:43:51;3.60;1.00
21207;DHT22;10761;48.532;8.026;2024-03-02T01:46:17;3.60;1.00
21207;DHT22;10761;48.532;8.026;2024-03-02T01:48:43;3.60;1.00
21207;DHT22;10761;48.532;8.026;2024-03-02T01:51:08;3.50;1.00
21207;DHT22;10761;48.532;8.026;2024-03-02T01:53:35;3.40;1.00
21207;DHT22;10761;48.532;8.026;2024-03-02T01:56:01;3.40;1.00
21207;DHT22;10761;48.532;8.026;2024-03-02T01:58:27;3.30;1.00
21207;DHT22;10761;48.532;8.026;2024-03-02T02:00:53;3.40;1.00
21207;DHT22;10761;48.532;8.026;2024-03-02T02:03:19;3.40;1.00
21207;DHT22;10761;48.532;8.026;2024-03-02T02:05:45;3.40;1.00
21207;DHT22;10761;48.532;8.026;2024-03-02T02:08:12;3.40;20.50
21207;DHT22;10761;48.532;8.026;2024-03-02T02:10:38;3.40;80.40
21207;DHT22;10761;48.532;8.026;2024-03-02T02:13:03;3.40;95.70
21207;DHT22;10761;48.532;8.026;2024-03-02T02:15:30;3.40;65.40
21207;DHT22;10761;48.532;8.026;2024-03-02T02:17:57;3.30;75.10
21207;DHT22;10761;48.532;8.026;2024-03-02T02:20:23;3.30;99.90
21207;DHT22;10761;48.532;8.026;2024-03-02T02:23:00;3.20;99.90
21207;DHT22;10761;48.532;8.026;2024-03-02T02:25:26;3.20;99.90
21207;DHT22;10761;48.532;8.026;2024-03-02T02:27:52;3.20;99.90
21207;DHT22;10761;48.532;8.026;2024-03-02T02:30:22;3.10;99.90
21207;DHT22;10761;48.532;8.026;2024-03-02T02:32:48;3.10;99.90
21207;DHT22;10761;48.532;8.026;2024-03-02T02:35:14;3.10;99.90
21207;DHT22;10761;48.532;8.026;2024-03-02T02:37:39;3.00;99.90
21207;DHT22;10761;48.532;8.026;2024-03-02T02:40:06;3.00;99.90
21207;DHT22;10761;48.532;8.026;2024-03-02T02:42:31;3.00;99.90
21207;DHT22;10761;48.532;8.026;2024-03-02T02:44:57;3.00;99.90
21207;DHT22;10761;48.532;8.026;2024-03-02T02:47:22;3.00;99.90
21207;DHT22;10761;48.532;8.026;2024-03-02T02:49:48;3.00;99.90
21207;DHT22;10761;48.532;8.026;2024-03-02T02:52:13;2.90;99.90
21207;DHT22;10761;48.532;8.026;2024-03-02T02:54:39;2.90;99.90
21207;DHT22;10761;48.532;8.026;2024-03-02T02:57:04;2.90;99.90
21207;DHT22;10761;48.532;8.026;2024-03-02T02:59:30;2.90;99.90
21207;DHT22;10761;48.532;8.026;2024-03-02T03:01:56;2.90;99.90
21207;DHT22;10761;48.532;8.026;2024-03-02T03:04:21;2.80;99.90
21207;DHT22;10761;48.532;8.026;2024-03-02T03:06:47;2.90;99.90
21207;DHT22;10761;48.532;8.026;2024-03-02T03:09:12;3.00;99.90
21207;DHT22;10761;48.532;8.026;2024-03-02T03:11:38;3.00;99.90
21207;DHT22;10761;48.532;8.026;2024-03-02T03:14:03;3.00;99.90
21207;DHT22;10761;48.532;8.026;2024-03-02T03:16:30;3.10;99.90
21207;DHT22;10761;48.532;8.026;2024-03-02T03:18:55;3.20;99.90
21207;DHT22;10761;48.532;8.026;2024-03-02T03:21:21;3.30;99.90
21207;DHT22;10761;48.532;8.026;2024-03-02T03:23:47;3.30;99.90
21207;DHT22;10761;48.532;8.026;2024-03-02T03:26:12;3.30;99.90
21207;DHT22;10761;48.532;8.026;2024-03-02T03:28:38;3.20;99.90
21207;DHT22;10761;48.532;8.026;2024-03-02T03:31:04;3.20;99.90
21207;DHT22;10761;48.532;8.026;2024-03-02T03:33:29;3.20;99.90
21207;DHT22;10761;48.532;8.026;2024-03-02T03:35:55;3.10;99.90
21207;DHT22;10761;48.532;8.026;2024-03-02T03:38:21;3.10;99.90
21207;DHT22;10761;48.532;8.026;2024-03-02T03:40:46;3.20;99.90
21207;DHT22;10761;48.532;8.026;2024-03-02T03:43:12;3.10;99.90
21207;DHT22;10761;48.532;8.026;2024-03-02T03:45:38;3.10;99.90
21207;DHT22;10761;48.532;8.026;2024-03-02T03:48:04;3.10;99.90
21207;DHT22;10761;48.532;8.026;2024-03-02T03:50:30;3.20;99.90
21207;DHT22;10761;48.532;8.026;2024-03-02T03:52:55;3.40;99.90
21207;DHT22;10761;48.532;8.026;2024-03-02T03:55:21;3.40;99.90
21207;DHT22;10761;48.532;8.026;2024-03-02T03:57:46;3.50;99.90
21207;DHT22;10761;48.532;8.026;2024-03-02T04:00:12;3.60;54.70
21207;DHT22;10761;48.532;8.026;2024-03-02T04:02:38;3.60;25.00
21207;DHT22;10761;48.532;8.026;2024-03-02T04:05:04;3.80;7.60
21207;DHT22;10761;48.532;8.026;2024-03-02T04:07:37;3.90;1.00
21207;DHT22;10761;48.532;8.026;2024-03-02T04:10:09;3.90;1.00
21207;DHT22;10761;48.532;8.026;2024-03-02T04:12:38;3.60;99.90
21207;DHT22;10761;48.532;8.026;2024-03-02T04:15:07;3.50;99.90
21207;DHT22;10761;48.532;8.026;2024-03-02T04:17:33;3.50;99.90
21207;DHT22;10761;48.532;8.026;2024-03-02T04:19:59;3.40;99.90
21207;DHT22;10761;48.532;8.026;2024-03-02T04:22:26;3.40;99.90
21207;DHT22;10761;48.532;8.026;2024-03-02T04:24:52;3.50;99.90
21207;DHT22;10761;48.532;8.026;2024-03-02T04:27:17;3.40;99.90
21207;DHT22;10761;48.532;8.026;2024-03-02T04:29:43;3.40;99.90
21207;DHT22;10761;48.532;8.026;2024-03-02T04:32:09;3.30;99.90
21207;DHT22;10761;48.532;8.026;2024-03-02T04:34:34;3.20;99.90
21207;DHT22;10761;48.532;8.026;2024-03-02T04:37:00;3.00;99.90
21207;DHT22;10761;48.532;8.026;2024-03-02T04:39:25;3.00;99.90
21207;DHT22;10761;48.532;8.026;2024-03-02T04:41:51;2.90;99.90
21207;DHT22;10761;48.532;8.026;2024-03-02T04:44:17;2.90;99.90
21207;DHT22;10761;48.532;8.026;2024-03-02T04:46:42;3.00;99.90
21207;DHT22;10761;48.532;8.026;2024-03-02T04:49:08;3.00;99.90
21207;DHT22;10761;48.532;8.026;2024-03-02T04:51:33;3.00;99.90
21207;DHT22;10761;48.532;8.026;2024-03-02T04:53:59;3.00;99.90
21207;DHT22;10761;48.532;8.026;2024-03-02T04:56:25;2.90;99.90
21207;DHT22;10761;48.532;8.026;2024-03-02T04:58:56;3.00;99.90
21207;DHT22;10761;48.532;8.026;2024-03-02T05:01:22;3.00;99.90
21207;DHT22;10761;48.532;8.026;2024-03-02T05:03:47;2.90;99.90
21207;DHT22;10761;48.532;8.026;2024-03-02T05:06:13;2.90;99.90
21207;DHT22;10761;48.532;8.026;2024-03-02T05:08:38;2.80;99.90
21207;DHT22;10761;48.532;8.026;2024-03-02T05:11:04;2.80;99.90
21207;DHT22;10761;48.532;8.026;2024-03-02T05:13:48;2.70;99.90
21207;DHT22;10761;48.532;8.026;2024-03-02T05:16:14;2.80;99.90
21207;DHT22;10761;48.532;8.026;2024-03-02T05:18:39;2.80;99.90
21207;DHT22;10761;48.532;8.026;2024-03-02T05:21:05;2.80;99.90
21207;DHT22;10761;48.532;8.026;2024-03-02T05:23:30;2.80;99.90
21207;DHT22;10761;48.532;8.026;2024-03-02T05:25:56;2.80;99.90
21207;DHT22;10761;48.532;8.026;2024-03-02T05:28:22;2.80;99.90
21207;DHT22;10761;48.532;8.026;2024-03-02T05:30:47;2.70;99.90
21207;DHT22;10761;48.532;8.026;2024-03-02T05:33:13;2.70;99.90
21207;DHT22;10761;48.532;8.026;2024-03-02T05:35:38;2.70;99.90
21207;DHT22;10761;48.532;8.026;2024-03-02T05:38:04;2.70;99.90
21207;DHT22;10761;48.532;8.026;2024-03-02T05:40:29;2.70;99.90
21207;DHT22;10761;48.532;8.026;2024-03-02T05:42:55;2.70;99.90
21207;DHT22;10761;48.532;8.026;2024-03-02T05:45:20;2.60;99.90
21207;DHT22;10761;48.532;8.026;2024-03-02T05:47:46;2.50;99.90
21207;DHT22;10761;48.532;8.026;2024-03-02T05:50:12;2.40;99.90
21207;DHT22;10761;48.532;8.026;2024-03-02T05:52:37;2.40;99.90
21207;DHT22;10761;48.532;8.026;2024-03-02T05:55:04;2.40;99.90
21207;DHT22;10761;48.532;8.026;2024-03-02T05:57:30;2.40;99.90
21207;DHT22;10761;48.532;8.026;2024-03-02T06:00:20;2.50;99.90
21207;DHT22;10761;48.532;8.026;2024-03-02T06:02:47;2.50;99.90
21207;DHT22;10761;48.532;8.026;2024-03-02T06:05:13;2.60;99.90
21207;DHT22;10761;48.532;8.026;2024-03-02T06:07:40;2.70;99.90
21207;DHT22;10761;48.532;8.026;2024-03-02T06:10:06;2.70;99.90
21207;DHT22;10761;48.532;8.026;2024-03-02T06:12:32;2.60;99.90
21207;DHT22;10761;48.532;8.026;2024-03-02T06:14:58;2.60;99.90
21207;DHT22;10761;48.532;8.026;2024-03-02T06:17:24;2.60;99.90
21207;DHT22;10761;48.532;8.026;2024-03-02T06:19:49;2.60;99.90
21207;DHT22;10761;48.532;8.026;2024-03-02T06:22:15;2.70;99.90
21207;DHT22;10761;48.532;8.026;2024-03-02T06:24:40;2.70;99.90
21207;DHT22;10761;48.532;8.026;2024-03-02T06:27:06;2.80;99.90
21207;DHT22;10761;48.532;8.026;2024-03-02T06:29:35;2.80;99.90
21207;DHT22;10761;48.532;8.026;2024-03-02T06:32:00;2.90;99.90
21207;DHT22;10761;48.532;8.026;2024-03-02T06:34:26;3.00;99.90
21207;DHT22;10761;48.532;8.026;2024-03-02T06:36:51;3.00;99.90
21207;DHT22;10761;48.532;8.026;2024-03-02T06:39:17;3.00;99.90
21207;DHT22;10761;48.532;8.026;2024-03-02T06:41:43;3.00;99.90
21207;DHT22;10761;48.532;8.026;2024-03-02T06:44:08;3.00;99.90
21207;DHT22;10761;48.532;8.026;2024-03-02T06:46:34;3.10;99.90
21207;DHT22;10761;48.532;8.026;2024-03-02T06:48:59;3.10;99.90
21207;DHT22;10761;48.532;8.026;2024-03-02T06:51:27;3.20;99.90
21207;DHT22;10761;48.532;8.026;2024-03-02T06:53:53;3.20;99.90
21207;DHT22;10761;48.532;8.026;2024-03-02T06:56:18;3.30;99.90
21207;DHT22;10761;48.532;8.026;2024-03-02T06:58:44;3.40;99.90
21207;DHT22;10761;48.532;8.026;2024-03-02T07:01:09;3.50;99.90
21207;DHT22;10761;48.532;8.026;2024-03-02T07:03:35;3.60;99.90
21207;DHT22;10761;48.532;8.026;2024-03-02T07:06:01;3.70;99.90
21207;DHT22;10761;48.532;8.026;2024-03-02T07:08:26;3.80;99.90
21207;DHT22;10761;48.532;8.026;2024-03-02T07:10:52;4.00;99.90
21207;DHT22;10761;48.532;8.026;2024-03-02T07:13:18;4.20;99.90
21207;DHT22;10761;48.532;8.026;2024-03-02T07:15:43;4.30;99.90
21207;DHT22;10761;48.532;8.026;2024-03-02T07:18:28;4.40;99.90
21207;DHT22;10761;48.532;8.026;2024-03-02T07:20:53;4.50;95.40
21207;DHT22;10761;48.532;8.026;2024-03-02T07:23:21;4.70;82.90
21207;DHT22;10761;48.532;8.026;2024-03-02T07:25:49;4.80;82.80
21207;DHT22;10761;48.532;8.026;2024-03-02T07:28:15;4.80;51.60
21207;DHT22;10761;48.532;8.026;2024-03-02T07:30:41;4.90;70.10
21207;DHT22;10761;48.532;8.026;2024-03-02T07:33:07;5.00;23.70
21207;DHT22;10761;48.532;8.026;2024-03-02T07:35:32;5.20;16.50
21207;DHT22;10761;48.532;8.026;2024-03-02T07:37:58;5.40;55.80
21207;DHT22;10761;48.532;8.026;2024-03-02T07:40:24;5.60;1.00
21207;DHT22;10761;48.532;8.026;2024-03-02T07:42:50;5.80;1.00
21207;DHT22;10761;48.532;8.026;2024-03-02T07:45:16;6.10;1.00
21207;DHT22;10761;48.532;8.026;2024-03-02T07:47:41;6.40;1.00
21207;DHT22;10761;48.532;8.026;2024-03-02T07:50:07;6.60;1.00
21207;DHT22;10761;48.532;8.026;2024-03-02T07:52:33;6.80;1.00
21207;DHT22;10761;48.532;8.026;2024-03-02T07:54:59;7.00;99.90
21207;DHT22;10761;48.532;8.026;2024-03-02T07:57:28;7.40;99.90
21207;DHT22;10761;48.532;8.026;2024-03-02T07:59:58;7.70;99.90
21207;DHT22;10761;48.532;8.026;2024-03-02T08:02:25;8.10;67.00
21207;DHT22;10761;48.532;8.026;2024-03-02T08:04:51;8.60;1.00
21207;DHT22;10761;48.532;8.026;2024-03-02T08:07:16;9.00;1.00
21207;DHT22;10761;48.532;8.026;2024-03-02T08:09:42;9.40;1.00
21207;DHT22;10761;48.532;8.026;2024-03-02T08:12:07;9.60;1.00
21207;DHT22;10761;48.532;8.026;2024-03-02T08:14:34;9.90;1.00
21207;DHT22;10761;48.532;8.026;2024-03-02T08:16:59;10.20;1.00
21207;DHT22;10761;48.532;8.026;2024-03-02T08:19:27;10.60;1.00
21207;DHT22;10761;48.532;8.026;2024-03-02T08:21:52;10.70;99.90
21207;DHT22;10761;48.532;8.026;2024-03-02T08:24:18;10.80;1.00
21207;DHT22;10761;48.532;8.026;2024-03-02T08:26:43;10.80;99.90
21207;DHT22;10761;48.532;8.026;2024-03-02T08:29:09;11.00;1.00
21207;DHT22;10761;48.532;8.026;2024-03-02T08:31:35;11.20;1.00
21207;DHT22;10761;48.532;8.026;2024-03-02T08:34:01;11.40;1.00
21207;DHT22;10761;48.532;8.026;2024-03-02T08:36:27;11.70;1.00
21207;DHT22;10761;48.532;8.026;2024-03-02T08:38:53;12.00;1.00
21207;DHT22;10761;48.532;8.026;2024-03-02T08:41:18;12.50;99.90
21207;DHT22;10761;48.532;8.026;2024-03-02T08:43:44;12.80;99.90
21207;DHT22;10761;48.532;8.026;2024-03-02T08:46:10;13.20;32.60
21207;DHT22;10761;48.532;8.026;2024-03-02T08:48:35;13.30;1.00
21207;DHT22;10761;48.532;8.026;2024-03-02T08:51:01;13.60;1.00
21207;DHT22;10761;48.532;8.026;2024-03-02T08:53:27;14.00;1.00
21207;DHT22;10761;48.532;8.026;2024-03-02T08:55:53;14.40;1.00
21207;DHT22;10761;48.532;8.026;2024-03-02T08:58:20;14.80;1.00
21207;DHT22;10761;48.532;8.026;2024-03-02T09:00:47;15.00;1.00
21207;DHT22;10761;48.532;8.026;2024-03-02T09:03:12;15.40;1.00
21207;DHT22;10761;48.532;8.026;2024-03-02T09:05:38;15.50;1.00
21207;DHT22;10761;48.532;8.026;2024-03-02T09:08:04;15.50;1.00
21207;DHT22;10761;48.532;8.026;2024-03-02T09:10:29;15.70;1.00
21207;DHT22;10761;48.532;8.026;2024-03-02T09:12:55;16.00;1.00
21207;DHT22;10761;48.532;8.026;2024-03-02T09:15:21;16.30;99.90
21207;DHT22;10761;48.532;8.026;2024-03-02T09:17:46;16.50;99.90
21207;DHT22;10761;48.532;8.026;2024-03-02T09:20:12;15.90;99.90
21207;DHT22;10761;48.532;8.026;2024-03-02T09:22:39;16.10;99.90
21207;DHT22;10761;48.532;8.026;2024-03-02T09:25:05;16.60;99.90
21207;DHT22;10761;48.532;8.026;2024-03-02T09:27:32;16.50;99.90
21207;DHT22;10761;48.532;8.026;2024-03-02T09:29:58;16.70;99.90
21207;DHT22;10761;48.532;8.026;2024-03-02T09:32:23;16.90;99.90
21207;DHT22;10761;48.532;8.026;2024-03-02T09:34:49;17.20;99.90
21207;DHT22;10761;48.532;8.026;2024-03-02T09:37:15;17.30;99.90
21207;DHT22;10761;48.532;8.026;2024-03-02T09:39:40;17.10;99.90
21207;DHT22;10761;48.532;8.026;2024-03-02T09:42:08;16.90;99.90
21207;DHT22;10761;48.532;8.026;2024-03-02T09:44:34;17.20;99.90
21207;DHT22;10761;48.532;8.026;2024-03-02T09:46:59;17.20;99.90
21207;DHT22;10761;48.532;8.026;2024-03-02T09:49:25;17.40;99.90
21207;DHT22;10761;48.532;8.026;2024-03-02T09:51:51;17.40;99.90
21207;DHT22;10761;48.532;8.026;2024-03-02T09:54:16;17.60;99.90
21207;DHT22;10761;48.532;8.026;2024-03-02T09:56:42;17.70;99.90
21207;DHT22;10761;48.532;8.026;2024-03-02T09:59:09;17.60;99.90
21207;DHT22;10761;48.532;8.026;2024-03-02T10:01:34;17.60;99.90
21207;DHT22;10761;48.532;8.026;2024-03-02T10:04:00;17.60;99.90
21207;DHT22;10761;48.532;8.026;2024-03-02T10:06:27;17.70;99.90
21207;DHT22;10761;48.532;8.026;2024-03-02T10:08:53;18.20;99.90
21207;DHT22;10761;48.532;8.026;2024-03-02T10:11:26;18.70;99.90
21207;DHT22;10761;48.532;8.026;2024-03-02T10:14:07;19.10;99.90
21207;DHT22;10761;48.532;8.026;2024-03-02T10:16:37;19.40;99.90
21207;DHT22;10761;48.532;8.026;2024-03-02T10:19:19;19.80;99.90
21207;DHT22;10761;48.532;8.026;2024-03-02T10:21:52;20.00;99.90
21207;DHT22;10761;48.532;8.026;2024-03-02T10:24:19;19.40;99.90
21207;DHT22;10761;48.532;8.026;2024-03-02T10:26:46;19.00;99.90
21207;DHT22;10761;48.532;8.026;2024-03-02T10:29:12;18.90;99.90
21207;DHT22;10761;48.532;8.026;2024-03-02T10:31:39;19.00;99.90
21207;DHT22;10761;48.532;8.026;2024-03-02T10:34:09;18.90;99.90
21207;DHT22;10761;48.532;8.026;2024-03-02T10:36:35;19.00;99.90
21207;DHT22;10761;48.532;8.026;2024-03-02T10:39:04;19.30;99.90
21207;DHT22;10761;48.532;8.026;2024-03-02T10:41:33;19.90;99.90
21207;DHT22;10761;48.532;8.026;2024-03-02T10:44:01;20.30;99.90
21207;DHT22;10761;48.532;8.026;2024-03-02T10:46:29;20.60;99.90
21207;DHT22;10761;48.532;8.026;2024-03-02T10:48:59;20.60;99.90
21207;DHT22;10761;48.532;8.026;2024-03-02T10:51:29;20.90;99.90
21207;DHT22;10761;48.532;8.026;2024-03-02T10:53:57;20.60;72.20
21207;DHT22;10761;48.532;8.026;2024-03-02T10:56:43;19.60;65.30
21207;DHT22;10761;48.532;8.026;2024-03-02T11:01:51;20.10;66.70
21207;DHT22;10761;48.532;8.026;2024-03-02T11:04:19;20.40;46.90
21207;DHT22;10761;48.532;8.026;2024-03-02T11:06:48;20.10;4.60
21207;DHT22;10761;48.532;8.026;2024-03-02T11:09:14;20.20;1.00
21207;DHT22;10761;48.532;8.026;2024-03-02T11:11:43;20.00;1.00
21207;DHT22;10761;48.532;8.026;2024-03-02T11:14:14;19.90;1.00
21207;DHT22;10761;48.532;8.026;2024-03-02T11:16:42;19.90;1.00
21207;DHT22;10761;48.532;8.026;2024-03-02T11:19:11;19.60;1.00
21207;DHT22;10761;48.532;8.026;2024-03-02T11:21:38;19.60;1.00
21207;DHT22;10761;48.532;8.026;2024-03-02T11:26:53;18.40;1.00
21207;DHT22;10761;48.532;8.026;2024-03-02T11:34:42;19.50;1.00
21207;DHT22;10761;48.532;8.026;2024-03-02T11:37:16;19.30;1.00
21207;DHT22;10761;48.532;8.026;2024-03-02T11:39:43;18.90;1.00
21207;DHT22;10761;48.532;8.026;2024-03-02T11:42:11;18.70;1.00
21207;DHT22;10761;48.532;8.026;2024-03-02T11:44:37;19.10;1.00
21207;DHT22;10761;48.532;8.026;2024-03-02T11:47:08;19.40;1.00
21207;DHT22;10761;48.532;8.026;2024-03-02T11:49:44;19.10;1.00
21207;DHT22;10761;48.532;8.026;2024-03-02T11:52:13;19.00;1.00
21207;DHT22;10761;48.532;8.026;2024-03-02T11:54:42;19.70;1.00
21207;DHT22;10761;48.532;8.026;2024-03-02T11:57:19;19.80;1.00
21207;DHT22;10761;48.532;8.026;2024-03-02T11:59:45;20.30;1.00
21207;DHT22;10761;48.532;8.026;2024-03-02T12:02:21;21.00;1.00
21207;DHT22;10761;48.532;8.026;2024-03-02T12:04:49;22.30;1.00
21207;DHT22;10761;48.532;8.026;2024-03-02T12:07:24;23.60;1.00
21207;DHT22;10761;48.532;8.026;2024-03-02T12:09:59;24.80;1.00
21207;DHT22;10761;48.532;8.026;2024-03-02T12:12:25;25.30;1.00
21207;DHT22;10761;48.532;8.026;2024-03-02T12:14:52;24.70;1.00
21207;DHT22;10761;48.532;8.026;2024-03-02T12:17:20;24.90;1.00
21207;DHT22;10761;48.532;8.026;2024-03-02T12:19:46;25.20;1.00
21207;DHT22;10761;48.532;8.026;2024-03-02T12:22:12;23.90;1.00
21207;DHT22;10761;48.532;8.026;2024-03-02T12:24:37;23.70;1.00
21207;DHT22;10761;48.532;8.026;2024-03-02T12:27:05;23.00;1.00
21207;DHT22;10761;48.532;8.026;2024-03-02T12:29:31;22.30;1.00
21207;DHT22;10761;48.532;8.026;2024-03-02T12:31:56;22.30;1.00
21207;DHT22;10761;48.532;8.026;2024-03-02T12:34:22;22.80;1.00
21207;DHT22;10761;48.532;8.026;2024-03-02T12:36:50;22.90;1.00
21207;DHT22;10761;48.532;8.026;2024-03-02T12:39:19;22.60;1.00
21207;DHT22;10761;48.532;8.026;2024-03-02T12:41:46;21.90;1.00
21207;DHT22;10761;48.532;8.026;2024-03-02T12:44:12;22.50;1.00
21207;DHT22;10761;48.532;8.026;2024-03-02T12:46:37;24.00;1.00
21207;DHT22;10761;48.532;8.026;2024-03-02T12:49:11;23.90;1.00
21207;DHT22;10761;48.532;8.026;2024-03-02T12:51:38;23.60;1.00
21207;DHT22;10761;48.532;8.026;2024-03-02T12:54:06;23.80;1.00
21207;DHT22;10761;48.532;8.026;2024-03-02T12:56:32;23.60;1.00
21207;DHT22;10761;48.532;8.026;2024-03-02T12:58:58;23.60;1.00
21207;DHT22;10761;48.532;8.026;2024-03-02T13:01:25;23.60;1.00
21207;DHT22;10761;48.532;8.026;2024-03-02T13:03:51;23.60;1.00
21207;DHT22;10761;48.532;8.026;2024-03-02T13:06:17;23.90;1.00
21207;DHT22;10761;48.532;8.026;2024-03-02T13:08:45;24.80;1.00
21207;DHT22;10761;48.532;8.026;2024-03-02T13:11:11;25.20;1.00
21207;DHT22;10761;48.532;8.026;2024-03-02T13:13:36;25.60;1.00
21207;DHT22;10761;48.532;8.026;2024-03-02T13:16:04;24.90;1.00
21207;DHT22;10761;48.532;8.026;2024-03-02T13:18:30;24.80;1.00
21207;DHT22;10761;48.532;8.026;2024-03-02T13:20:56;24.40;1.00
21207;DHT22;10761;48.532;8.026;2024-03-02T13:23:22;24.70;1.00
21207;DHT22;10761;48.532;8.026;2024-03-02T13:25:47;24.80;1.00
21207;DHT22;10761;48.532;8.026;2024-03-02T13:28:13;24.70;1.00
21207;DHT22;10761;48.532;8.026;2024-03-02T13:30:39;25.00;1.00
21207;DHT22;10761;48.532;8.026;2024-03-02T13:33:04;24.40;1.00
21207;DHT22;10761;48.532;8.026;2024-03-02T13:35:30;24.00;1.00
21207;DHT22;10761;48.532;8.026;2024-03-02T13:37:56;23.50;1.00
21207;DHT22;10761;48.532;8.026;2024-03-02T13:40:21;23.60;1.00
21207;DHT22;10761;48.532;8.026;2024-03-02T13:42:49;23.40;1.00
21207;DHT22;10761;48.532;8.026;2024-03-02T13:45:29;23.10;1.00
21207;DHT22;10761;48.532;8.026;2024-03-02T13:47:56;23.60;1.00
21207;DHT22;10761;48.532;8.026;2024-03-02T13:50:22;22.70;1.00
21207;DHT22;10761;48.532;8.026;2024-03-02T13:52:48;21.00;1.00
21207;DHT22;10761;48.532;8.026;2024-03-02T13:55:13;20.30;1.00
21207;DHT22;10761;48.532;8.026;2024-03-02T13:57:39;20.70;1.00
21207;DHT22;10761;48.532;8.026;2024-03-02T14:00:05;20.50;1.00
21207;DHT22;10761;48.532;8.026;2024-03-02T14:02:36;20.40;1.00
21207;DHT22;10761;48.532;8.026;2024-03-02T14:05:01;21.20;1.00
21207;DHT22;10761;48.532;8.026;2024-03-02T14:07:27;22.80;1.00
21207;DHT22;10761;48.532;8.026;2024-03-02T14:09:53;24.00;1.00
21207;DHT22;10761;48.532;8.026;2024-03-02T14:12:19;24.20;1.00
21207;DHT22;10761;48.532;8.026;2024-03-02T14:14:44;23.40;1.00
21207;DHT22;10761;48.532;8.026;2024-03-02T14:17:10;22.40;1.00
21207;DHT22;10761;48.532;8.026;2024-03-02T14:19:39;21.20;1.00
21207;DHT22;10761;48.532;8.026;2024-03-02T14:22:05;20.60;1.00
21207;DHT22;10761;48.532;8.026;2024-03-02T14:24:31;19.90;1.00
21207;DHT22;10761;48.532;8.026;2024-03-02T14:26:57;18.90;1.00
21207;DHT22;10761;48.532;8.026;2024-03-02T14:29:24;18.20;1.00
21207;DHT22;10761;48.532;8.026;2024-03-02T14:31:50;17.80;1.00
21207;DHT22;10761;48.532;8.026;2024-03-02T14:34:15;17.70;1.00
21207;DHT22;10761;48.532;8.026;2024-03-02T14:36:44;17.70;1.00
21207;DHT22;10761;48.532;8.026;2024-03-02T14:39:11;17.60;1.00
21207;DHT22;10761;48.532;8.026;2024-03-02T14:41:39;17.70;1.00
21207;DHT22;10761;48.532;8.026;2024-03-02T14:44:05;17.90;1.00
21207;DHT22;10761;48.532;8.026;2024-03-02T14:46:31;18.10;1.00
21207;DHT22;10761;48.532;8.026;2024-03-02T14:48:56;18.10;1.00
21207;DHT22;10761;48.532;8.026;2024-03-02T14:51:22;18.10;1.00
21207;DHT22;10761;48.532;8.026;2024-03-02T14:53:48;17.90;1.00
21207;DHT22;10761;48.532;8.026;2024-03-02T14:56:14;17.50;1.00
21207;DHT22;10761;48.532;8.026;2024-03-02T14:58:39;17.20;1.00
21207;DHT22;10761;48.532;8.026;2024-03-02T15:01:05;17.20;1.00
21207;DHT22;10761;48.532;8.026;2024-03-02T15:03:31;17.10;1.00
21207;DHT22;10761;48.532;8.026;2024-03-02T15:05:57;17.00;1.00
21207;DHT22;10761;48.532;8.026;2024-03-02T15:08:23;17.00;1.00
21207;DHT22;10761;48.532;8.026;2024-03-02T15:10:49;17.00;1.00
21207;DHT22;10761;48.532;8.026;2024-03-02T15:13:14;16.90;1.00
21207;DHT22;10761;48.532;8.026;2024-03-02T15:15:41;16.80;1.00
21207;DHT22;10761;48.532;8.026;2024-03-02T15:18:06;16.70;1.00
21207;DHT22;10761;48.532;8.026;2024-03-02T15:20:33;16.70;1.00
21207;DHT22;10761;48.532;8.026;2024-03-02T15:22:59;16.60;1.00
21207;DHT22;10761;48.532;8.026;2024-03-02T15:25:24;16.60;1.00
21207;DHT22;10761;48.532;8.026;2024-03-02T15:27:50;16.60;1.00
21207;DHT22;10761;48.532;8.026;2024-03-02T15:30:16;16.50;1.00
21207;DHT22;10761;48.532;8.026;2024-03-02T15:32:42;16.50;1.00
21207;DHT22;10761;48.532;8.026;2024-03-02T15:35:07;16.50;1.00
21207;DHT22;10761;48.532;8.026;2024-03-02T15:37:33;16.50;1.00
21207;DHT22;10761;48.532;8.026;2024-03-02T15:39:59;16.40;1.00
21207;DHT22;10761;48.532;8.026;2024-03-02T15:42:33;16.30;1.00
21207;DHT22;10761;48.532;8.026;2024-03-02T15:44:58;16.20;1.00
21207;DHT22;10761;48.532;8.026;2024-03-02T15:47:24;16.00;1.00
21207;DHT22;10761;48.532;8.026;2024-03-02T15:49:50;15.90;1.00
21207;DHT22;10761;48.532;8.026;2024-03-02T15:52:15;15.90;1.00
21207;DHT22;10761;48.532;8.026;2024-03-02T15:54:47;15.80;1.00
21207;DHT22;10761;48.532;8.026;2024-03-02T15:57:15;15.70;4.10
21207;DHT22;10761;48.532;8.026;2024-03-02T15:59:41;15.60;9.60